Flight Track Log - Related Links

Times and Time Zones

All times are in EST time to prevent confusion due to time zone crossing. See the UAL4695 flight status page for this flight to view local times or setup timezone preferences in your user account.

Time Position Orientation Groundspeed Altitude Reporting Facility
EST Latitude Longitude Course Direction KTS MPH feet Rate Location/Type
Tue 02:17:38 PM 35.8944 -78.7792 15° North 163 188 1,300  Level Washington Center
Tue 02:18:54 PM 35.9475 -78.7453 27° Northeast 180 207 4,100 2,409 Climbing Washington Center
Tue 02:19:55 PM 36.0044 -78.7219 18° North 191 220 6,800 2,557 Climbing Washington Center
Tue 02:20:00 PM 36.0951 -78.5949 15° North  Level Estimated
Tue 02:20:56 PM 36.0739 -78.7017 13° North 222 255 9,300  Level Washington Center
Tue 02:21:00 PM 36.1674 -78.5305 11° North  Level Estimated
Tue 02:21:54 PM 36.1581 -78.6739 15° North 265 305 12,000  Level Washington Center
Tue 02:22:00 PM 36.2398 -78.4660 15° North  Level Estimated
Tue 02:22:55 PM 36.2422 -78.6464 15° North 292 336 14,000  Level Washington Center
Tue 02:23:55 PM 36.3328 -78.6164 15° North 318 366 15,400 1,289 Climbing Washington Center
Tue 02:24:56 PM 36.4253 -78.5917 12° North 347 399 16,600 1,190 Climbing Washington Center
Tue 02:25:56 PM 36.5306 -78.5517 17° North 367 422 17,800 2,022 Climbing Washington Center
Tue 02:27:54 PM 36.7328 -78.4739 17° North 380 437 22,600 1,967 Climbing Washington Center
Tue 02:28:56 PM 36.8344 -78.4050 28° Northeast 380 437 23,700 1,672 Climbing Washington Center
Tue 02:29:56 PM 36.9303 -78.3253 34° Northeast 402 463 26,000 1,678 Climbing Washington Center
Tue 02:30:54 PM 37.0386 -78.2328 34° Northeast 424 488 27,000 508 Climbing Washington Center
Tue 02:31:54 PM 37.1258 -78.1656 32° Northeast 438 504 27,000  Level Washington Center
Tue 02:32:55 PM 37.2508 -78.0628 33° Northeast 463 533 27,000  Level Washington Center
Tue 02:33:55 PM 37.3678 -77.9619 34° Northeast 491 565 27,000  Level Washington Center
Tue 02:34:56 PM 37.4886 -77.8611 34° Northeast 509 586 27,000  Level Washington Center
Tue 02:35:57 PM 37.6094 -77.7572 34° Northeast 519 597 27,000  Level Washington Center
Tue 02:36:54 PM 37.7281 -77.6478 36° Northeast 519 597 27,000  Level Washington Center
Tue 02:37:54 PM 37.8467 -77.5403 36° Northeast 524 603 27,000  Level Washington Center
Tue 02:38:55 PM 37.9589 -77.4328 37° Northeast 517 595 27,000  Level Washington Center
Tue 02:39:56 PM 38.0644 -77.3431 34° Northeast 450 518 27,000  Level Washington Center
Tue 02:40:55 PM 38.1569 -77.2922 23° Northeast 391 450 27,000  Level Washington Center
Tue 02:41:55 PM 38.2439 -77.2017 39° Northeast 386 444 27,000  Level Washington Center
Tue 02:42:54 PM 38.3347 -77.1111 38° Northeast 391 450 27,000  Level Washington Center
Tue 02:43:54 PM 38.4192 -77.0228 39° Northeast 398 458 27,000  Level Washington Center
Tue 02:44:55 PM 38.5036 -76.9289 41° Northeast 398 458 27,000  Level Washington Center
Tue 02:45:56 PM 38.5489 -76.7917 67° East 393 452 27,000  Level Washington Center
Tue 02:46:56 PM 38.6269 -76.6997 43° Northeast 374 430 27,000  Level Washington Center
Tue 02:47:56 PM 38.7214 -76.6294 30° Northeast 374 430 27,000  Level Washington Center
Tue 02:48:54 PM 38.8114 -76.5561 32° Northeast 384 442 27,000  Level Washington Center
Tue 02:49:54 PM 38.9058 -76.4744 34° Northeast 390 449 27,000  Level Washington Center
Tue 02:50:55 PM 38.9794 -76.4139 33° Northeast 395 455 27,000  Level Washington Center
Tue 02:51:56 PM 39.0883 -76.3031 38° Northeast 395 455 27,000  Level Washington Center
Tue 02:52:54 PM 39.1828 -76.1942 42° Northeast 432 497 27,000  Level Washington Center
Tue 02:53:54 PM 39.2769 -76.0850 42° Northeast 440 506 27,000  Level Washington Center
Tue 02:54:55 PM 39.3628 -75.9861 42° Northeast 427 491 27,000 -600 Level Washington Center
Tue 02:55:54 PM 39.4444 -75.8872 43° Northeast 415 478 25,800 -1,300 Descending Washington Center
Tue 02:56:55 PM 39.5281 -75.7906 42° Northeast 410 472 24,400 -1,388 Descending Washington Center
Tue 02:57:55 PM 39.6072 -75.6939 43° Northeast 393 452 23,000 -1,537 Descending Washington Center
Tue 02:58:56 PM 39.6864 -75.5997 42° Northeast 388 447 21,300 -1,513 Descending Washington Center
Tue 02:59:54 PM 39.7636 -75.5078 42° Northeast 382 440 20,000 -1,261 Descending Washington Center
Tue 03:00:55 PM 39.8364 -75.4186 43° Northeast 370 426 18,800 -1,240 Descending Washington Center
Tue 03:01:55 PM 39.9069 -75.3319 43° Northeast 358 412 17,500 -1,279 Descending Washington Center
Tue 03:02:57 PM 39.9775 -75.2478 42° Northeast 342 394 16,200 -2,100 Descending Washington Center
Tue 03:03:55 PM 40.0400 -75.1714 43° Northeast 342 394 13,300 -2,542 Descending Washington Center
Tue 03:04:55 PM 40.1167 -75.0789 43° Northeast 353 406 11,200 -1,160 Descending Washington Center
Tue 03:05:54 PM 40.1744 -75.0022 45° Northeast 330 380 11,000 -151 Descending Washington Center
Tue 03:06:54 PM 40.2306 -74.9367 42° Northeast 292 336 10,900 -50 Descending Washington Center
Tue 03:07:55 PM 40.2758 -74.8656 50° Northeast 261 300 10,900  Level Washington Center
Tue 03:08:55 PM 40.2214 -74.8200 147° Southeast 169 194 10,900 -595 Level Washington Center
Tue 03:09:56 PM 40.1758 -74.8800 225° Southwest 104 120 9,700 -920 Descending Washington Center
Tue 03:11:25 PM 40.1833 -74.9833 275° West 227 261 8,600 -708 Descending New York TRACON
Tue 03:12:20 PM 40.2167 -74.9500 37° Northeast 235 270 8,000 -313 Descending New York TRACON
Tue 03:13:20 PM 40.2667 -74.8833 45° Northeast 223 257 8,000  Level New York TRACON
Tue 03:14:20 PM 40.3167 -74.8333 37° Northeast 217 250 8,000 -350 Level New York TRACON
Tue 03:15:20 PM 40.3500 -74.7667 57° Northeast 217 250 7,300 -750 Descending New York TRACON
Tue 03:16:20 PM 40.3833 -74.7167 49° Northeast 202 232 6,500 -650 Descending New York TRACON
Tue 03:17:20 PM 40.4333 -74.6833 27° Northeast 195 224 6,000 -350 Descending New York TRACON
Tue 03:18:20 PM 40.4833 -74.6333 37° Northeast 199 229 5,800 -450 Descending New York TRACON
Tue 03:19:20 PM 40.4833 -74.5500 90° East 232 267 5,100 -700 Descending New York TRACON
Tue 03:20:20 PM 40.4167 -74.5167 159° South 245 282 4,400 -650 Descending New York TRACON
Tue 03:21:20 PM 40.3667 -74.4667 143° Southeast 231 266 3,800 -550 Descending New York TRACON
Tue 03:22:20 PM 40.3667 -74.4000 90° East 202 232 3,300 -400 Descending New York TRACON
Tue 03:23:20 PM 40.4000 -74.3500 49° Northeast 178 205 3,000 -200 Descending New York TRACON
Tue 03:24:20 PM 40.4333 -74.3333 21° North 163 188 2,900  Descending New York TRACON
Tue 03:25:20 PM 40.4833 -74.3000 27° Northeast 167 192 3,000  Climbing New York TRACON
Tue 03:26:20 PM 40.5167 -74.2667 37° Northeast 160 184 2,900 -100 Descending New York TRACON
Tue 03:27:20 PM 40.5667 -74.2500 14° North 163 188 2,800 -550 Descending New York TRACON
Tue 03:28:20 PM 40.6000 -74.2167 37° Northeast 160 184 1,800 -900 Descending New York TRACON
Tue 03:29:20 PM 40.6333 -74.2000 21° North 144 166 1,000 -800 Descending New York TRACON

Login

Don't have an account? Register now (free) for customized features, flight alerts, and more!